斜め後ろから見た飛行機達

斜め後ろから見た飛行機の姿もなかなか良い。
「これから飛ぶぞ!」っていう力強さを感じる。
Boeing777-200(JA706A)
離陸するJALのAirbus A300-600R(JA8566)と
タキシングするANAのBoeing777-200(JA706A)。
Airbus A300とBoeing777-200
スポットで出発準備を行うBoeing767-300(JA8579)と
プッシュバックするBoeing777-200(JA714A)。
767と777
離陸位置に降ろされたフラップと車輪
Boeing777-200(JA8199)。
Boeing777-200(JA8199)
羽田空港のR/W34Rへ向けてタキシングを開始したB777。
タキシングを開始したBoeing777-200
昨日見た本日の天気予報は”曇り”だったのに、
今、METARを見たら、、、
RJTT 182100Z 20012KT CAVOK 27/22 Q1004 RMK A2965
200度からの風12ノットで”快晴”(Cloud And Visibility OK)だって!
むずむずしてきちゃう。
真っ青な空を背景にR/W22にアプローチする飛行機の姿が目に浮かぶ。

コメントを残す

メールアドレスが公開されることはありません。